sensor_id;sensor_type;location;lat;lon;timestamp;P1;durP1;ratioP1;P2;durP2;ratioP2
9052;SDS011;4561;47.450;7.516;2022-07-29T00:00:28;2.80;;;2.00;;
9052;SDS011;4561;47.450;7.516;2022-07-29T00:03:48;2.93;;;1.93;;
9052;SDS011;4561;47.450;7.516;2022-07-29T00:07:13;4.10;;;1.73;;
9052;SDS011;4561;47.450;7.516;2022-07-29T00:10:36;3.97;;;1.90;;
9052;SDS011;4561;47.450;7.516;2022-07-29T00:13:58;4.90;;;1.70;;
9052;SDS011;4561;47.450;7.516;2022-07-29T00:17:19;7.27;;;1.83;;
9052;SDS011;4561;47.450;7.516;2022-07-29T00:20:39;1.87;;;1.60;;
9052;SDS011;4561;47.450;7.516;2022-07-29T00:24:04;2.67;;;1.63;;
9052;SDS011;4561;47.450;7.516;2022-07-29T00:27:27;2.47;;;1.70;;
9052;SDS011;4561;47.450;7.516;2022-07-29T00:30:50;6.43;;;1.80;;
9052;SDS011;4561;47.450;7.516;2022-07-29T00:34:10;2.60;;;1.70;;
9052;SDS011;4561;47.450;7.516;2022-07-29T00:37:51;2.97;;;1.90;;
9052;SDS011;4561;47.450;7.516;2022-07-29T00:41:11;5.23;;;1.60;;
9052;SDS011;4561;47.450;7.516;2022-07-29T00:44:41;2.60;;;1.60;;
9052;SDS011;4561;47.450;7.516;2022-07-29T00:48:06;2.33;;;1.43;;
9052;SDS011;4561;47.450;7.516;2022-07-29T00:51:28;3.20;;;1.70;;
9052;SDS011;4561;47.450;7.516;2022-07-29T00:54:51;8.03;;;1.93;;
9052;SDS011;4561;47.450;7.516;2022-07-29T00:58:11;6.27;;;1.90;;
9052;SDS011;4561;47.450;7.516;2022-07-29T01:01:33;3.30;;;1.77;;
9052;SDS011;4561;47.450;7.516;2022-07-29T01:04:53;2.90;;;1.87;;
9052;SDS011;4561;47.450;7.516;2022-07-29T01:08:17;3.50;;;2.20;;
9052;SDS011;4561;47.450;7.516;2022-07-29T01:11:40;3.17;;;1.87;;
9052;SDS011;4561;47.450;7.516;2022-07-29T01:15:08;5.43;;;2.30;;
9052;SDS011;4561;47.450;7.516;2022-07-29T01:18:37;6.77;;;2.93;;
9052;SDS011;4561;47.450;7.516;2022-07-29T01:22:07;3.90;;;2.60;;
9052;SDS011;4561;47.450;7.516;2022-07-29T01:29:36;6.60;;;3.10;;
9052;SDS011;4561;47.450;7.516;2022-07-29T01:33:00;9.70;;;3.03;;
9052;SDS011;4561;47.450;7.516;2022-07-29T01:39:44;3.30;;;2.30;;
9052;SDS011;4561;47.450;7.516;2022-07-29T01:43:10;4.97;;;2.27;;
9052;SDS011;4561;47.450;7.516;2022-07-29T01:46:39;5.37;;;2.33;;
9052;SDS011;4561;47.450;7.516;2022-07-29T01:50:06;3.40;;;2.03;;
9052;SDS011;4561;47.450;7.516;2022-07-29T01:53:32;5.33;;;2.20;;
9052;SDS011;4561;47.450;7.516;2022-07-29T01:56:56;3.90;;;2.30;;
9052;SDS011;4561;47.450;7.516;2022-07-29T02:00:17;3.40;;;2.23;;
9052;SDS011;4561;47.450;7.516;2022-07-29T02:03:41;2.87;;;2.00;;
9052;SDS011;4561;47.450;7.516;2022-07-29T02:07:07;3.33;;;1.77;;
9052;SDS011;4561;47.450;7.516;2022-07-29T02:10:31;3.57;;;2.17;;
9052;SDS011;4561;47.450;7.516;2022-07-29T02:13:53;3.97;;;2.27;;
9052;SDS011;4561;47.450;7.516;2022-07-29T02:17:16;2.40;;;1.93;;
9052;SDS011;4561;47.450;7.516;2022-07-29T02:20:42;2.67;;;2.27;;
9052;SDS011;4561;47.450;7.516;2022-07-29T02:24:07;5.20;;;2.47;;
9052;SDS011;4561;47.450;7.516;2022-07-29T02:27:28;2.50;;;1.97;;
9052;SDS011;4561;47.450;7.516;2022-07-29T02:30:52;4.33;;;2.20;;
9052;SDS011;4561;47.450;7.516;2022-07-29T02:34:15;3.93;;;2.20;;
9052;SDS011;4561;47.450;7.516;2022-07-29T02:37:40;2.93;;;2.33;;
9052;SDS011;4561;47.450;7.516;2022-07-29T02:41:05;3.37;;;2.33;;
9052;SDS011;4561;47.450;7.516;2022-07-29T02:44:27;2.57;;;2.37;;
9052;SDS011;4561;47.450;7.516;2022-07-29T02:47:49;2.93;;;1.93;;
9052;SDS011;4561;47.450;7.516;2022-07-29T02:51:12;2.73;;;1.97;;
9052;SDS011;4561;47.450;7.516;2022-07-29T02:54:47;4.10;;;2.10;;
9052;SDS011;4561;47.450;7.516;2022-07-29T02:58:18;3.47;;;2.10;;
9052;SDS011;4561;47.450;7.516;2022-07-29T03:01:42;3.20;;;2.00;;
9052;SDS011;4561;47.450;7.516;2022-07-29T03:05:04;2.40;;;2.00;;
9052;SDS011;4561;47.450;7.516;2022-07-29T03:08:29;3.00;;;2.03;;
9052;SDS011;4561;47.450;7.516;2022-07-29T03:11:52;4.20;;;1.90;;
9052;SDS011;4561;47.450;7.516;2022-07-29T03:15:14;3.13;;;1.80;;
9052;SDS011;4561;47.450;7.516;2022-07-29T03:18:35;5.23;;;2.07;;
9052;SDS011;4561;47.450;7.516;2022-07-29T03:21:58;3.10;;;2.03;;
9052;SDS011;4561;47.450;7.516;2022-07-29T03:25:21;3.60;;;2.00;;
9052;SDS011;4561;47.450;7.516;2022-07-29T03:28:43;2.23;;;2.03;;
9052;SDS011;4561;47.450;7.516;2022-07-29T03:32:11;4.80;;;2.40;;
9052;SDS011;4561;47.450;7.516;2022-07-29T03:35:31;6.37;;;2.63;;
9052;SDS011;4561;47.450;7.516;2022-07-29T03:38:52;3.03;;;2.60;;
9052;SDS011;4561;47.450;7.516;2022-07-29T03:42:14;3.63;;;2.33;;
9052;SDS011;4561;47.450;7.516;2022-07-29T03:45:35;6.23;;;2.80;;
9052;SDS011;4561;47.450;7.516;2022-07-29T03:48:57;3.27;;;2.37;;
9052;SDS011;4561;47.450;7.516;2022-07-29T03:52:21;6.53;;;2.53;;
9052;SDS011;4561;47.450;7.516;2022-07-29T03:55:43;4.97;;;2.50;;
9052;SDS011;4561;47.450;7.516;2022-07-29T03:59:05;8.10;;;2.47;;
9052;SDS011;4561;47.450;7.516;2022-07-29T04:02:26;5.20;;;2.60;;
9052;SDS011;4561;47.450;7.516;2022-07-29T04:05:59;6.47;;;2.47;;
9052;SDS011;4561;47.450;7.516;2022-07-29T04:09:21;4.70;;;2.87;;
9052;SDS011;4561;47.450;7.516;2022-07-29T04:12:41;5.43;;;2.47;;
9052;SDS011;4561;47.450;7.516;2022-07-29T04:16:02;3.57;;;2.40;;
9052;SDS011;4561;47.450;7.516;2022-07-29T04:19:25;3.37;;;2.10;;
9052;SDS011;4561;47.450;7.516;2022-07-29T04:22:48;2.93;;;2.57;;
9052;SDS011;4561;47.450;7.516;2022-07-29T04:26:09;3.93;;;2.10;;
9052;SDS011;4561;47.450;7.516;2022-07-29T04:29:33;5.23;;;2.73;;
9052;SDS011;4561;47.450;7.516;2022-07-29T04:32:56;4.90;;;2.60;;
9052;SDS011;4561;47.450;7.516;2022-07-29T04:36:19;4.40;;;2.30;;
9052;SDS011;4561;47.450;7.516;2022-07-29T04:39:39;2.70;;;2.10;;
9052;SDS011;4561;47.450;7.516;2022-07-29T04:43:00;4.97;;;2.70;;
9052;SDS011;4561;47.450;7.516;2022-07-29T04:46:20;4.47;;;2.70;;
9052;SDS011;4561;47.450;7.516;2022-07-29T04:49:41;2.87;;;2.63;;
9052;SDS011;4561;47.450;7.516;2022-07-29T04:53:03;5.77;;;2.67;;
9052;SDS011;4561;47.450;7.516;2022-07-29T04:56:24;4.90;;;2.37;;
9052;SDS011;4561;47.450;7.516;2022-07-29T04:59:44;3.30;;;2.43;;
9052;SDS011;4561;47.450;7.516;2022-07-29T05:03:09;3.40;;;2.80;;
9052;SDS011;4561;47.450;7.516;2022-07-29T05:06:32;2.77;;;2.43;;
9052;SDS011;4561;47.450;7.516;2022-07-29T05:09:57;4.17;;;2.40;;
9052;SDS011;4561;47.450;7.516;2022-07-29T05:13:22;4.00;;;2.73;;
9052;SDS011;4561;47.450;7.516;2022-07-29T05:16:45;4.07;;;2.70;;
9052;SDS011;4561;47.450;7.516;2022-07-29T05:20:06;3.27;;;2.60;;
9052;SDS011;4561;47.450;7.516;2022-07-29T05:23:27;5.00;;;2.60;;
9052;SDS011;4561;47.450;7.516;2022-07-29T05:26:47;6.87;;;3.20;;
9052;SDS011;4561;47.450;7.516;2022-07-29T05:30:07;7.00;;;2.80;;
9052;SDS011;4561;47.450;7.516;2022-07-29T05:33:31;3.70;;;2.77;;
9052;SDS011;4561;47.450;7.516;2022-07-29T05:36:56;4.37;;;2.60;;
9052;SDS011;4561;47.450;7.516;2022-07-29T05:40:19;4.80;;;2.77;;
9052;SDS011;4561;47.450;7.516;2022-07-29T05:43:40;3.57;;;2.77;;
9052;SDS011;4561;47.450;7.516;2022-07-29T05:47:00;2.97;;;2.77;;
9052;SDS011;4561;47.450;7.516;2022-07-29T05:50:23;3.83;;;2.80;;
9052;SDS011;4561;47.450;7.516;2022-07-29T05:53:45;4.43;;;3.20;;
9052;SDS011;4561;47.450;7.516;2022-07-29T05:57:09;3.43;;;2.80;;
9052;SDS011;4561;47.450;7.516;2022-07-29T06:00:35;3.07;;;2.60;;
9052;SDS011;4561;47.450;7.516;2022-07-29T06:03:55;3.33;;;2.63;;
9052;SDS011;4561;47.450;7.516;2022-07-29T06:07:16;4.23;;;2.63;;
9052;SDS011;4561;47.450;7.516;2022-07-29T06:10:36;6.50;;;2.90;;
9052;SDS011;4561;47.450;7.516;2022-07-29T06:13:57;7.03;;;2.77;;
9052;SDS011;4561;47.450;7.516;2022-07-29T06:17:22;3.30;;;2.60;;
9052;SDS011;4561;47.450;7.516;2022-07-29T06:20:43;3.43;;;2.53;;
9052;SDS011;4561;47.450;7.516;2022-07-29T06:24:03;5.00;;;2.77;;
9052;SDS011;4561;47.450;7.516;2022-07-29T06:27:24;3.83;;;2.63;;
9052;SDS011;4561;47.450;7.516;2022-07-29T06:30:44;2.90;;;2.60;;
9052;SDS011;4561;47.450;7.516;2022-07-29T06:34:07;2.47;;;2.20;;
9052;SDS011;4561;47.450;7.516;2022-07-29T06:37:28;7.97;;;3.03;;
9052;SDS011;4561;47.450;7.516;2022-07-29T06:40:48;3.37;;;2.87;;
9052;SDS011;4561;47.450;7.516;2022-07-29T06:44:23;4.20;;;3.20;;
9052;SDS011;4561;47.450;7.516;2022-07-29T06:47:46;3.07;;;2.77;;
9052;SDS011;4561;47.450;7.516;2022-07-29T06:51:06;5.23;;;3.07;;
9052;SDS011;4561;47.450;7.516;2022-07-29T06:54:27;7.13;;;3.00;;
9052;SDS011;4561;47.450;7.516;2022-07-29T06:57:50;3.03;;;2.33;;
9052;SDS011;4561;47.450;7.516;2022-07-29T07:01:11;4.27;;;2.00;;
9052;SDS011;4561;47.450;7.516;2022-07-29T07:04:34;3.37;;;1.80;;
9052;SDS011;4561;47.450;7.516;2022-07-29T07:07:54;2.00;;;1.80;;
9052;SDS011;4561;47.450;7.516;2022-07-29T07:11:15;2.40;;;2.10;;
9052;SDS011;4561;47.450;7.516;2022-07-29T07:14:40;3.87;;;2.10;;
9052;SDS011;4561;47.450;7.516;2022-07-29T07:18:05;2.97;;;2.73;;
9052;SDS011;4561;47.450;7.516;2022-07-29T07:21:26;4.00;;;3.60;;
9052;SDS011;4561;47.450;7.516;2022-07-29T07:24:46;6.40;;;3.43;;
9052;SDS011;4561;47.450;7.516;2022-07-29T07:28:07;4.33;;;3.30;;
9052;SDS011;4561;47.450;7.516;2022-07-29T07:31:27;5.50;;;3.63;;
9052;SDS011;4561;47.450;7.516;2022-07-29T07:34:47;4.53;;;3.63;;
9052;SDS011;4561;47.450;7.516;2022-07-29T07:38:08;3.53;;;3.23;;
9052;SDS011;4561;47.450;7.516;2022-07-29T07:41:33;4.73;;;3.17;;
9052;SDS011;4561;47.450;7.516;2022-07-29T07:44:53;4.03;;;2.70;;
9052;SDS011;4561;47.450;7.516;2022-07-29T07:48:13;3.37;;;2.73;;
9052;SDS011;4561;47.450;7.516;2022-07-29T07:51:34;3.87;;;3.27;;
9052;SDS011;4561;47.450;7.516;2022-07-29T07:54:54;4.47;;;4.07;;
9052;SDS011;4561;47.450;7.516;2022-07-29T07:58:14;6.07;;;4.17;;
9052;SDS011;4561;47.450;7.516;2022-07-29T08:01:35;5.37;;;3.53;;
9052;SDS011;4561;47.450;7.516;2022-07-29T08:04:58;5.83;;;3.77;;
9052;SDS011;4561;47.450;7.516;2022-07-29T08:08:19;3.80;;;3.40;;
9052;SDS011;4561;47.450;7.516;2022-07-29T08:11:40;6.67;;;3.13;;
9052;SDS011;4561;47.450;7.516;2022-07-29T08:15:00;3.30;;;2.53;;
9052;SDS011;4561;47.450;7.516;2022-07-29T08:18:20;4.67;;;2.47;;
9052;SDS011;4561;47.450;7.516;2022-07-29T08:21:41;2.47;;;2.23;;
9052;SDS011;4561;47.450;7.516;2022-07-29T08:25:06;4.30;;;2.47;;
9052;SDS011;4561;47.450;7.516;2022-07-29T08:28:29;4.77;;;2.30;;
9052;SDS011;4561;47.450;7.516;2022-07-29T08:31:50;3.90;;;2.30;;
9052;SDS011;4561;47.450;7.516;2022-07-29T08:35:15;2.93;;;2.40;;
9052;SDS011;4561;47.450;7.516;2022-07-29T08:38:36;4.00;;;2.60;;
9052;SDS011;4561;47.450;7.516;2022-07-29T08:41:56;4.53;;;2.87;;
9052;SDS011;4561;47.450;7.516;2022-07-29T08:45:16;3.43;;;2.50;;
9052;SDS011;4561;47.450;7.516;2022-07-29T08:48:37;4.63;;;2.50;;
9052;SDS011;4561;47.450;7.516;2022-07-29T08:51:58;3.77;;;2.43;;
9052;SDS011;4561;47.450;7.516;2022-07-29T08:55:22;5.50;;;2.47;;
9052;SDS011;4561;47.450;7.516;2022-07-29T08:58:45;2.17;;;1.90;;
9052;SDS011;4561;47.450;7.516;2022-07-29T09:02:07;3.28;;;2.33;;
9052;SDS011;4561;47.450;7.516;2022-07-29T09:05:41;5.95;;;2.30;;
9052;SDS011;4561;47.450;7.516;2022-07-29T09:09:02;3.47;;;2.50;;
9052;SDS011;4561;47.450;7.516;2022-07-29T09:12:27;4.07;;;2.30;;
9052;SDS011;4561;47.450;7.516;2022-07-29T09:15:51;3.92;;;1.98;;
9052;SDS011;4561;47.450;7.516;2022-07-29T09:22:44;3.35;;;2.15;;
9052;SDS011;4561;47.450;7.516;2022-07-29T09:26:09;4.95;;;1.90;;
9052;SDS011;4561;47.450;7.516;2022-07-29T09:29:33;2.95;;;1.90;;
9052;SDS011;4561;47.450;7.516;2022-07-29T09:32:55;2.85;;;2.00;;
9052;SDS011;4561;47.450;7.516;2022-07-29T09:36:16;3.08;;;2.10;;
9052;SDS011;4561;47.450;7.516;2022-07-29T09:39:38;3.63;;;2.10;;
9052;SDS011;4561;47.450;7.516;2022-07-29T09:43:12;4.05;;;2.17;;
9052;SDS011;4561;47.450;7.516;2022-07-29T09:46:33;3.47;;;2.33;;
9052;SDS011;4561;47.450;7.516;2022-07-29T09:49:57;5.07;;;1.70;;
9052;SDS011;4561;47.450;7.516;2022-07-29T09:53:29;4.68;;;1.90;;
9052;SDS011;4561;47.450;7.516;2022-07-29T09:56:49;6.10;;;1.73;;
9052;SDS011;4561;47.450;7.516;2022-07-29T10:00:17;5.10;;;1.63;;
9052;SDS011;4561;47.450;7.516;2022-07-29T10:03:52;7.95;;;2.17;;
9052;SDS011;4561;47.450;7.516;2022-07-29T10:07:13;8.40;;;2.10;;
9052;SDS011;4561;47.450;7.516;2022-07-29T10:10:36;3.80;;;1.95;;
9052;SDS011;4561;47.450;7.516;2022-07-29T10:14:01;5.35;;;1.67;;
9052;SDS011;4561;47.450;7.516;2022-07-29T10:17:23;2.42;;;1.60;;
9052;SDS011;4561;47.450;7.516;2022-07-29T10:20:43;3.00;;;1.63;;
9052;SDS011;4561;47.450;7.516;2022-07-29T10:24:04;3.28;;;1.77;;
9052;SDS011;4561;47.450;7.516;2022-07-29T10:27:25;3.35;;;1.73;;
9052;SDS011;4561;47.450;7.516;2022-07-29T10:30:50;2.72;;;1.92;;
9052;SDS011;4561;47.450;7.516;2022-07-29T10:34:27;4.75;;;1.83;;
9052;SDS011;4561;47.450;7.516;2022-07-29T10:45:24;3.17;;;1.70;;
9052;SDS011;4561;47.450;7.516;2022-07-29T10:56:29;2.42;;;1.70;;
9052;SDS011;4561;47.450;7.516;2022-07-29T11:07:17;4.15;;;2.00;;
9052;SDS011;4561;47.450;7.516;2022-07-29T11:10:38;6.88;;;1.73;;
9052;SDS011;4561;47.450;7.516;2022-07-29T11:13:58;5.20;;;1.90;;
9052;SDS011;4561;47.450;7.516;2022-07-29T11:17:24;2.80;;;1.92;;
9052;SDS011;4561;47.450;7.516;2022-07-29T11:20:47;2.58;;;1.60;;
9052;SDS011;4561;47.450;7.516;2022-07-29T11:24:13;6.25;;;2.22;;
9052;SDS011;4561;47.450;7.516;2022-07-29T11:27:40;7.47;;;2.35;;
9052;SDS011;4561;47.450;7.516;2022-07-29T11:31:01;2.60;;;1.50;;
9052;SDS011;4561;47.450;7.516;2022-07-29T11:34:31;4.20;;;1.92;;
9052;SDS011;4561;47.450;7.516;2022-07-29T11:41:45;3.40;;;1.75;;
9052;SDS011;4561;47.450;7.516;2022-07-29T11:48:41;2.42;;;1.75;;
9052;SDS011;4561;47.450;7.516;2022-07-29T11:52:02;2.22;;;1.60;;
9052;SDS011;4561;47.450;7.516;2022-07-29T11:55:23;4.95;;;1.42;;
9052;SDS011;4561;47.450;7.516;2022-07-29T11:58:44;5.18;;;2.00;;
9052;SDS011;4561;47.450;7.516;2022-07-29T12:02:07;3.63;;;1.45;;
9052;SDS011;4561;47.450;7.516;2022-07-29T12:05:35;6.57;;;1.52;;
9052;SDS011;4561;47.450;7.516;2022-07-29T12:09:07;4.88;;;1.58;;
9052;SDS011;4561;47.450;7.516;2022-07-29T12:12:30;4.80;;;1.70;;
9052;SDS011;4561;47.450;7.516;2022-07-29T12:15:53;5.72;;;1.70;;
9052;SDS011;4561;47.450;7.516;2022-07-29T12:19:17;3.28;;;1.75;;
9052;SDS011;4561;47.450;7.516;2022-07-29T12:22:39;5.45;;;1.60;;
9052;SDS011;4561;47.450;7.516;2022-07-29T12:26:04;5.25;;;1.85;;
9052;SDS011;4561;47.450;7.516;2022-07-29T12:29:27;6.88;;;1.92;;
9052;SDS011;4561;47.450;7.516;2022-07-29T12:32:48;2.70;;;1.80;;
9052;SDS011;4561;47.450;7.516;2022-07-29T12:36:11;5.80;;;1.58;;
9052;SDS011;4561;47.450;7.516;2022-07-29T12:39:36;3.17;;;1.65;;
9052;SDS011;4561;47.450;7.516;2022-07-29T12:43:06;3.58;;;1.75;;
9052;SDS011;4561;47.450;7.516;2022-07-29T12:46:29;2.47;;;1.83;;
9052;SDS011;4561;47.450;7.516;2022-07-29T12:50:08;7.30;;;1.70;;
9052;SDS011;4561;47.450;7.516;2022-07-29T12:53:30;3.20;;;1.58;;
9052;SDS011;4561;47.450;7.516;2022-07-29T12:56:57;3.40;;;1.80;;
9052;SDS011;4561;47.450;7.516;2022-07-29T13:00:22;2.78;;;1.52;;
9052;SDS011;4561;47.450;7.516;2022-07-29T13:03:54;2.95;;;1.85;;
9052;SDS011;4561;47.450;7.516;2022-07-29T13:07:23;6.43;;;2.27;;
9052;SDS011;4561;47.450;7.516;2022-07-29T13:10:47;3.30;;;1.70;;
9052;SDS011;4561;47.450;7.516;2022-07-29T13:14:08;4.03;;;1.57;;
9052;SDS011;4561;47.450;7.516;2022-07-29T13:17:30;4.55;;;1.85;;
9052;SDS011;4561;47.450;7.516;2022-07-29T13:21:12;3.63;;;1.60;;
9052;SDS011;4561;47.450;7.516;2022-07-29T13:28:12;3.80;;;1.60;;
9052;SDS011;4561;47.450;7.516;2022-07-29T13:31:36;3.97;;;1.48;;
9052;SDS011;4561;47.450;7.516;2022-07-29T13:35:00;4.55;;;1.80;;
9052;SDS011;4561;47.450;7.516;2022-07-29T13:38:22;3.92;;;1.70;;
9052;SDS011;4561;47.450;7.516;2022-07-29T13:41:42;2.40;;;1.70;;
9052;SDS011;4561;47.450;7.516;2022-07-29T13:45:03;5.07;;;1.65;;
9052;SDS011;4561;47.450;7.516;2022-07-29T13:48:27;2.90;;;1.60;;
9052;SDS011;4561;47.450;7.516;2022-07-29T13:51:47;4.13;;;1.90;;
9052;SDS011;4561;47.450;7.516;2022-07-29T13:55:11;5.75;;;1.70;;
9052;SDS011;4561;47.450;7.516;2022-07-29T13:58:34;7.30;;;1.95;;
9052;SDS011;4561;47.450;7.516;2022-07-29T14:01:54;3.22;;;1.58;;
9052;SDS011;4561;47.450;7.516;2022-07-29T14:05:15;4.05;;;1.58;;
9052;SDS011;4561;47.450;7.516;2022-07-29T14:08:38;2.50;;;1.50;;
9052;SDS011;4561;47.450;7.516;2022-07-29T14:12:00;5.00;;;1.70;;
9052;SDS011;4561;47.450;7.516;2022-07-29T14:15:22;3.65;;;1.67;;
9052;SDS011;4561;47.450;7.516;2022-07-29T14:18:43;2.90;;;1.58;;
9052;SDS011;4561;47.450;7.516;2022-07-29T14:22:04;1.90;;;1.73;;
9052;SDS011;4561;47.450;7.516;2022-07-29T14:25:28;5.97;;;1.85;;
9052;SDS011;4561;47.450;7.516;2022-07-29T14:28:49;4.30;;;1.60;;
9052;SDS011;4561;47.450;7.516;2022-07-29T14:32:11;3.50;;;1.85;;
9052;SDS011;4561;47.450;7.516;2022-07-29T14:35:32;2.03;;;1.73;;
9052;SDS011;4561;47.450;7.516;2022-07-29T14:38:52;3.20;;;1.58;;
9052;SDS011;4561;47.450;7.516;2022-07-29T14:42:13;5.30;;;1.98;;
9052;SDS011;4561;47.450;7.516;2022-07-29T14:45:33;6.80;;;1.98;;
9052;SDS011;4561;47.450;7.516;2022-07-29T14:48:54;1.83;;;1.73;;
9052;SDS011;4561;47.450;7.516;2022-07-29T14:52:14;2.78;;;1.88;;
9052;SDS011;4561;47.450;7.516;2022-07-29T14:55:37;5.68;;;2.08;;
9052;SDS011;4561;47.450;7.516;2022-07-29T14:58:57;3.05;;;1.70;;
9052;SDS011;4561;47.450;7.516;2022-07-29T15:02:22;5.63;;;1.65;;
9052;SDS011;4561;47.450;7.516;2022-07-29T15:05:42;1.88;;;1.55;;
9052;SDS011;4561;47.450;7.516;2022-07-29T15:09:03;2.55;;;1.90;;
9052;SDS011;4561;47.450;7.516;2022-07-29T15:12:28;5.55;;;1.80;;
9052;SDS011;4561;47.450;7.516;2022-07-29T15:15:48;3.95;;;1.98;;
9052;SDS011;4561;47.450;7.516;2022-07-29T15:19:09;5.85;;;1.90;;
9052;SDS011;4561;47.450;7.516;2022-07-29T15:22:30;3.33;;;1.55;;
9052;SDS011;4561;47.450;7.516;2022-07-29T15:25:50;4.70;;;1.70;;
9052;SDS011;4561;47.450;7.516;2022-07-29T15:29:11;6.32;;;1.70;;
9052;SDS011;4561;47.450;7.516;2022-07-29T15:32:32;4.32;;;1.55;;
9052;SDS011;4561;47.450;7.516;2022-07-29T15:35:52;4.22;;;1.58;;
9052;SDS011;4561;47.450;7.516;2022-07-29T15:39:16;1.70;;;1.58;;
9052;SDS011;4561;47.450;7.516;2022-07-29T15:42:39;5.22;;;1.73;;
9052;SDS011;4561;47.450;7.516;2022-07-29T15:46:00;3.75;;;1.52;;
9052;SDS011;4561;47.450;7.516;2022-07-29T15:49:40;5.05;;;1.98;;
9052;SDS011;4561;47.450;7.516;2022-07-29T15:53:01;4.75;;;1.77;;
9052;SDS011;4561;47.450;7.516;2022-07-29T15:56:24;5.70;;;2.00;;
9052;SDS011;4561;47.450;7.516;2022-07-29T15:59:44;4.20;;;1.45;;
9052;SDS011;4561;47.450;7.516;2022-07-29T16:03:07;3.70;;;1.80;;
9052;SDS011;4561;47.450;7.516;2022-07-29T16:06:29;1.90;;;1.52;;
9052;SDS011;4561;47.450;7.516;2022-07-29T16:09:53;2.25;;;1.67;;
9052;SDS011;4561;47.450;7.516;2022-07-29T16:13:13;5.90;;;1.83;;
9052;SDS011;4561;47.450;7.516;2022-07-29T16:16:36;5.13;;;1.90;;
9052;SDS011;4561;47.450;7.516;2022-07-29T16:20:04;4.75;;;1.70;;
9052;SDS011;4561;47.450;7.516;2022-07-29T16:23:25;3.78;;;1.58;;
9052;SDS011;4561;47.450;7.516;2022-07-29T16:26:48;4.60;;;1.83;;
9052;SDS011;4561;47.450;7.516;2022-07-29T16:30:09;1.98;;;1.50;;
9052;SDS011;4561;47.450;7.516;2022-07-29T16:33:29;6.20;;;1.80;;
9052;SDS011;4561;47.450;7.516;2022-07-29T16:36:50;6.07;;;2.00;;
9052;SDS011;4561;47.450;7.516;2022-07-29T16:40:10;5.13;;;2.10;;
9052;SDS011;4561;47.450;7.516;2022-07-29T16:43:31;6.53;;;2.03;;
9052;SDS011;4561;47.450;7.516;2022-07-29T16:46:53;4.60;;;1.70;;
9052;SDS011;4561;47.450;7.516;2022-07-29T16:50:14;5.00;;;1.48;;
9052;SDS011;4561;47.450;7.516;2022-07-29T16:53:38;7.13;;;1.73;;
9052;SDS011;4561;47.450;7.516;2022-07-29T16:56:59;3.53;;;1.73;;
9052;SDS011;4561;47.450;7.516;2022-07-29T17:00:23;4.72;;;1.40;;
9052;SDS011;4561;47.450;7.516;2022-07-29T17:03:43;6.38;;;1.80;;
9052;SDS011;4561;47.450;7.516;2022-07-29T17:07:22;9.18;;;1.90;;
9052;SDS011;4561;47.450;7.516;2022-07-29T17:10:42;4.38;;;1.50;;
9052;SDS011;4561;47.450;7.516;2022-07-29T17:14:03;5.88;;;1.65;;
9052;SDS011;4561;47.450;7.516;2022-07-29T17:17:23;3.47;;;1.63;;
9052;SDS011;4561;47.450;7.516;2022-07-29T17:20:46;4.77;;;1.67;;
9052;SDS011;4561;47.450;7.516;2022-07-29T17:24:09;2.00;;;1.23;;
9052;SDS011;4561;47.450;7.516;2022-07-29T17:27:32;8.77;;;1.67;;
9052;SDS011;4561;47.450;7.516;2022-07-29T17:30:53;2.40;;;1.60;;
9052;SDS011;4561;47.450;7.516;2022-07-29T17:34:13;3.37;;;1.47;;
9052;SDS011;4561;47.450;7.516;2022-07-29T17:37:33;3.13;;;1.60;;
9052;SDS011;4561;47.450;7.516;2022-07-29T17:40:55;3.77;;;1.37;;
9052;SDS011;4561;47.450;7.516;2022-07-29T17:44:16;4.90;;;1.70;;
9052;SDS011;4561;47.450;7.516;2022-07-29T17:47:36;1.93;;;1.53;;
9052;SDS011;4561;47.450;7.516;2022-07-29T17:50:59;2.17;;;1.57;;
9052;SDS011;4561;47.450;7.516;2022-07-29T17:54:25;2.77;;;1.43;;
9052;SDS011;4561;47.450;7.516;2022-07-29T17:57:45;4.17;;;1.70;;
9052;SDS011;4561;47.450;7.516;2022-07-29T18:01:08;2.33;;;1.33;;
9052;SDS011;4561;47.450;7.516;2022-07-29T18:04:31;2.63;;;1.70;;
9052;SDS011;4561;47.450;7.516;2022-07-29T18:07:54;3.93;;;1.43;;
9052;SDS011;4561;47.450;7.516;2022-07-29T18:11:20;5.20;;;1.70;;
9052;SDS011;4561;47.450;7.516;2022-07-29T18:14:45;4.40;;;1.80;;
9052;SDS011;4561;47.450;7.516;2022-07-29T18:18:05;3.93;;;1.50;;
9052;SDS011;4561;47.450;7.516;2022-07-29T18:21:26;4.37;;;1.50;;
9052;SDS011;4561;47.450;7.516;2022-07-29T18:24:47;5.43;;;1.50;;
9052;SDS011;4561;47.450;7.516;2022-07-29T18:28:08;4.70;;;1.60;;
9052;SDS011;4561;47.450;7.516;2022-07-29T18:31:28;6.13;;;1.70;;
9052;SDS011;4561;47.450;7.516;2022-07-29T18:34:48;2.47;;;1.53;;
9052;SDS011;4561;47.450;7.516;2022-07-29T18:38:11;5.60;;;1.50;;
9052;SDS011;4561;47.450;7.516;2022-07-29T18:41:32;3.10;;;1.33;;
9052;SDS011;4561;47.450;7.516;2022-07-29T18:44:52;1.43;;;1.30;;
9052;SDS011;4561;47.450;7.516;2022-07-29T18:48:16;2.63;;;1.10;;
9052;SDS011;4561;47.450;7.516;2022-07-29T18:51:39;2.03;;;1.43;;
9052;SDS011;4561;47.450;7.516;2022-07-29T18:54:59;4.17;;;1.80;;
9052;SDS011;4561;47.450;7.516;2022-07-29T18:58:21;4.63;;;2.03;;
9052;SDS011;4561;47.450;7.516;2022-07-29T19:01:44;3.20;;;1.70;;
9052;SDS011;4561;47.450;7.516;2022-07-29T19:05:09;5.13;;;1.63;;
9052;SDS011;4561;47.450;7.516;2022-07-29T19:08:32;4.83;;;1.50;;
9052;SDS011;4561;47.450;7.516;2022-07-29T19:11:52;2.90;;;1.40;;
9052;SDS011;4561;47.450;7.516;2022-07-29T19:15:15;4.43;;;1.80;;
9052;SDS011;4561;47.450;7.516;2022-07-29T19:18:36;6.50;;;1.67;;
9052;SDS011;4561;47.450;7.516;2022-07-29T19:21:56;3.10;;;1.40;;
9052;SDS011;4561;47.450;7.516;2022-07-29T19:25:21;5.10;;;1.90;;
9052;SDS011;4561;47.450;7.516;2022-07-29T19:28:42;6.07;;;2.03;;
9052;SDS011;4561;47.450;7.516;2022-07-29T19:32:05;5.40;;;2.20;;
9052;SDS011;4561;47.450;7.516;2022-07-29T19:35:28;3.93;;;1.23;;
9052;SDS011;4561;47.450;7.516;2022-07-29T19:38:51;2.57;;;1.30;;
9052;SDS011;4561;47.450;7.516;2022-07-29T19:42:12;2.23;;;1.20;;
9052;SDS011;4561;47.450;7.516;2022-07-29T19:45:32;4.40;;;1.23;;
9052;SDS011;4561;47.450;7.516;2022-07-29T19:48:55;5.77;;;1.20;;
9052;SDS011;4561;47.450;7.516;2022-07-29T19:52:15;1.33;;;1.20;;
9052;SDS011;4561;47.450;7.516;2022-07-29T19:55:36;2.50;;;1.37;;
9052;SDS011;4561;47.450;7.516;2022-07-29T19:58:56;5.27;;;1.20;;
9052;SDS011;4561;47.450;7.516;2022-07-29T20:02:17;1.57;;;1.03;;
9052;SDS011;4561;47.450;7.516;2022-07-29T20:05:37;5.40;;;1.30;;
9052;SDS011;4561;47.450;7.516;2022-07-29T20:09:00;2.80;;;1.27;;
9052;SDS011;4561;47.450;7.516;2022-07-29T20:12:21;3.00;;;1.30;;
9052;SDS011;4561;47.450;7.516;2022-07-29T20:15:41;2.63;;;1.07;;
9052;SDS011;4561;47.450;7.516;2022-07-29T20:19:02;2.03;;;0.87;;
9052;SDS011;4561;47.450;7.516;2022-07-29T20:22:22;2.33;;;1.40;;
9052;SDS011;4561;47.450;7.516;2022-07-29T20:25:45;2.40;;;1.37;;
9052;SDS011;4561;47.450;7.516;2022-07-29T20:29:05;3.13;;;1.40;;
9052;SDS011;4561;47.450;7.516;2022-07-29T20:32:26;5.57;;;1.60;;
9052;SDS011;4561;47.450;7.516;2022-07-29T20:35:46;6.83;;;1.50;;
9052;SDS011;4561;47.450;7.516;2022-07-29T20:39:06;3.43;;;1.40;;
9052;SDS011;4561;47.450;7.516;2022-07-29T20:42:27;2.93;;;1.10;;
9052;SDS011;4561;47.450;7.516;2022-07-29T20:45:49;3.53;;;1.20;;
9052;SDS011;4561;47.450;7.516;2022-07-29T20:49:10;3.40;;;1.20;;
9052;SDS011;4561;47.450;7.516;2022-07-29T20:52:31;4.67;;;1.43;;
9052;SDS011;4561;47.450;7.516;2022-07-29T20:55:57;2.53;;;1.70;;
9052;SDS011;4561;47.450;7.516;2022-07-29T20:59:17;3.73;;;1.13;;
9052;SDS011;4561;47.450;7.516;2022-07-29T21:02:38;2.73;;;1.17;;
9052;SDS011;4561;47.450;7.516;2022-07-29T21:05:59;6.07;;;1.43;;
9052;SDS011;4561;47.450;7.516;2022-07-29T21:09:19;1.30;;;1.00;;
9052;SDS011;4561;47.450;7.516;2022-07-29T21:12:40;4.93;;;1.50;;
9052;SDS011;4561;47.450;7.516;2022-07-29T21:16:01;2.90;;;1.20;;
9052;SDS011;4561;47.450;7.516;2022-07-29T21:19:21;2.23;;;1.50;;
9052;SDS011;4561;47.450;7.516;2022-07-29T21:22:42;2.00;;;0.90;;
9052;SDS011;4561;47.450;7.516;2022-07-29T21:26:03;3.27;;;1.17;;
9052;SDS011;4561;47.450;7.516;2022-07-29T21:29:23;3.03;;;1.23;;
9052;SDS011;4561;47.450;7.516;2022-07-29T21:32:44;1.70;;;1.30;;
9052;SDS011;4561;47.450;7.516;2022-07-29T21:36:07;2.43;;;1.17;;
9052;SDS011;4561;47.450;7.516;2022-07-29T21:39:28;2.93;;;1.27;;
9052;SDS011;4561;47.450;7.516;2022-07-29T21:42:49;3.33;;;1.60;;